KADS/ADS METAR and TAF weather

Enter ICAO airport designator
Station Type Date Time Source
KADS METAR 2019/06/18 16:47 UTC NOAA

KADS 181647Z 12003KT 10SM BKN250 29/19 A2991


Station Type Date Time Source
KADS Decoded METAR 2019/06/18 16:47 UTC NOAA

Dallas / Addison Airport, TX, United States (KADS) 32-58N 096-50W
Jun 18, 2019 - 12:47 PM EDT / 2019.06.18 1647 UTC
Wind: from the ESE (120 degrees) at 3 MPH (3 KT):0
Visibility: 10 mile(s):0
Sky conditions: mostly cloudy
Temperature: 84 F (29 C)
Dew Point: 66 F (19 C)
Relative Humidity: 54%
Pressure (altimeter): 29.91 in. Hg (1012 hPa)
ob: KADS 181647Z 12003KT 10SM BKN250 29/19 A2991
cycle: 17

Station Type Date Time Source
KADS TAF UTC NOAA

Error!

Example: see airport list